Zeran (malta) — 9HHJ5 — position and weather

sailwx.info

Track history (hours):
 
Tides and Currents Weather Stations Pressure Air Temp Water Temp Dewpoint Dewpoint Depression Visibility Wind Speed Wind Dir Waves Ship Positions

Zeran (malta)

Last reported at 2017-Aug-12 05:24 UTC. Time now 2017-Aug-20 00:35 UTC.
Position N 43°09' E 028°02'.

Length 148 m; beam 24 m.

Type: Cargo ship. MMSI: 249846000.

Date/timePositionNaut miles runAvg speedWind from/ knotsBaromVisibWave heightAir tempDewpointWater temp
2017-Aug-12 05:24N 43°09' E 028°02'0 1.1
2017-Aug-12 05:00N 43°09' E 028°02'1 1.8
2017-Aug-12 04:30N 43°09' E 028°02'3 5.3
2017-Aug-12 04:00N 43°06' E 028°01'3 5.9
2017-Aug-12 03:30N 43°03' E 028°00'9 5.7
2017-Aug-12 01:59N 42°55' E 027°60'3 5.6
2017-Aug-12 01:30N 42°52' E 027°59'3 5.6
2017-Aug-12 01:00N 42°49' E 027°59'3 5.1
2017-Aug-12 00:29N 42°47' E 027°59'4 7.6
2017-Aug-12 00:00N 42°43' E 027°59'5 9.9
2017-Aug-11 23:30N 42°38' E 027°60'510.1
2017-Aug-11 23:00N 42°34' E 028°03'510.3
2017-Aug-11 22:28N 42°29' E 028°07'510.5
2017-Aug-11 22:00N 42°25' E 028°12'510.7
2017-Aug-11 21:30N 42°21' E 028°16'611.4
2017-Aug-11 21:00N 42°16' E 028°21'611.6
2017-Aug-11 20:30N 42°12' E 028°25'611.6
2017-Aug-11 20:00N 42°07' E 028°30'611.3
2017-Aug-11 19:30N 42°02' E 028°34'611.1
2017-Aug-11 19:00N 41°57' E 028°37'511.0
2017-Aug-11 18:30N 41°53' E 028°42'510.8
2017-Aug-11 18:00N 41°49' E 028°46'510.7
2017-Aug-11 17:30N 41°44' E 028°50'510.7
2017-Aug-11 17:00N 41°40' E 028°55'510.6
2017-Aug-11 16:30N 41°36' E 028°59'510.6
2017-Aug-11 16:00N 41°32' E 029°03'510.7
2017-Aug-11 15:30N 41°27' E 029°07'510.9
2017-Aug-11 15:00N 41°23' E 029°11'1010.3
2017-Aug-11 14:00N 41°13' E 029°07'5 9.0
2017-Aug-11 13:28N 41°08' E 029°04'  
2017-Aug-08 16:37N 37°02' E 023°43'11310.7
2017-Aug-08 06:07N 36°33' E 021°27'112.8
2017-Aug-08 06:00N 36°33' E 021°26'612.7
2017-Aug-08 05:30N 36°35' E 021°18'4012.8
2017-Aug-08 02:24N 36°46' E 020°30'3312.7
2017-Aug-07 23:49N 36°56' E 019°51'412.8
2017-Aug-07 23:30N 36°57' E 019°46'912.7
2017-Aug-07 22:46N 36°60' E 019°35'312.7
2017-Aug-07 22:30N 37°01' E 019°31'612.9
2017-Aug-07 22:00N 37°02' E 019°23'713.0
2017-Aug-07 21:29N 37°04' E 019°15'613.0
2017-Aug-07 21:00N 37°06' E 019°08'612.7
2017-Aug-07 20:30N 37°07' E 018°60'612.8
2017-Aug-07 20:00N 37°08' E 018°52'612.8
2017-Aug-07 19:30N 37°10' E 018°44'1012.8
2017-Aug-07 18:42N 37°13' E 018°32'313.0
2017-Aug-07 18:29N 37°14' E 018°28'613.1
2017-Aug-07 18:00N 37°16' E 018°21'11612.8
2017-Aug-07 08:56N 37°48' E 016°00'912.0
2017-Aug-07 08:12N 37°50' E 015°49'211.4
2017-Aug-07 08:01N 37°50' E 015°47'611.1
2017-Aug-07 07:30N 37°53' E 015°40'611.6
2017-Aug-07 07:00N 37°57' E 015°35'611.9
2017-Aug-07 06:30N 38°03' E 015°34'612.2
2017-Aug-07 06:00N 38°09' E 015°35'611.3
2017-Aug-07 05:30N 38°14' E 015°37'5 9.2
2017-Aug-07 05:00N 38°18' E 015°40'611.9
2017-Aug-07 04:28N 38°23' E 015°34'612.2
2017-Aug-07 04:00N 38°27' E 015°29'612.2
2017-Aug-07 03:30N 38°32' E 015°24'612.2
2017-Aug-07 03:00N 38°36' E 015°18'612.1
2017-Aug-07 02:30N 38°40' E 015°13'611.9
2017-Aug-07 02:00N 38°45' E 015°08'611.8
2017-Aug-07 01:30N 38°49' E 015°03'611.8
2017-Aug-07 01:00N 38°53' E 014°57'611.6
2017-Aug-07 00:30N 38°57' E 014°52'3311.7
2017-Aug-06 21:40N 39°21' E 014°22'212.0
2017-Aug-06 21:30N 39°23' E 014°21'1012.1
2017-Aug-06 20:39N 39°30' E 014°11'212.1
2017-Aug-06 20:30N 39°31' E 014°09'5212.1
2017-Aug-06 16:11N 40°09' E 013°22'412.4
2017-Aug-06 15:49N 40°12' E 013°18'512.5
2017-Aug-06 15:27N 40°16' E 013°14'512.4
2017-Aug-06 15:00N 40°20' E 013°09'612.3
2017-Aug-06 14:30N 40°24' E 013°04'1412.3
2017-Aug-06 13:21N 40°34' E 012°51'412.2
2017-Aug-06 13:00N 40°37' E 012°47'612.1
2017-Aug-06 12:30N 40°41' E 012°41'612.1
2017-Aug-06 12:00N 40°46' E 012°35'612.2
2017-Aug-06 11:30N 40°50' E 012°30'6712.5
2017-Aug-06 06:08N 41°39' E 011°29'212.3
2017-Aug-06 05:58N 41°41' E 011°27'612.2
2017-Aug-06 05:30N 41°45' E 011°22'811.8
2017-Aug-06 04:51N 41°50' E 011°15'811.5
2017-Aug-06 04:12N 41°56' E 011°08'211.5
2017-Aug-06 04:00N 41°58' E 011°06'611.6
2017-Aug-06 03:30N 42°02' E 011°00'611.8
2017-Aug-06 03:00N 42°06' E 010°54'611.7
2017-Aug-06 02:30N 42°10' E 010°49'811.5
2017-Aug-06 01:48N 42°16' E 010°42'1111.6
2017-Aug-06 00:50N 42°24' E 010°31'511.8
2017-Aug-06 00:24N 42°27' E 010°26'511.7
2017-Aug-05 23:58N 42°31' E 010°21'1011.5
2017-Aug-05 23:04N 42°38' E 010°10'311.4
2017-Aug-05 22:47N 42°40' E 010°07'311.5
2017-Aug-05 22:30N 42°42' E 010°04'611.3
2017-Aug-05 22:00N 42°47' E 010°00'611.9
2017-Aug-05 21:30N 42°53' E 009°59'612.2
2017-Aug-05 21:01N 42°59' E 009°59'612.5
2017-Aug-05 20:30N 43°05' E 009°58'712.5
2017-Aug-05 19:58N 43°11' E 009°55'612.9
2017-Aug-05 19:30N 43°17' E 009°50'712.6
2017-Aug-05 18:58N 43°22' E 009°46'612.5
2017-Aug-05 18:30N 43°27' E 009°42'612.4
2017-Aug-05 18:00N 43°33' E 009°37'612.3
2017-Aug-05 17:31N 43°38' E 009°33'612.1
2017-Aug-05 17:00N 43°43' E 009°29'611.7
2017-Aug-05 16:30N 43°48' E 009°25'611.6
2017-Aug-05 16:01N 43°53' E 009°20'611.7
2017-Aug-05 15:30N 43°58' E 009°16'611.6
2017-Aug-05 15:00N 44°03' E 009°12'611.9
2017-Aug-05 14:30N 44°08' E 009°08'612.0
2017-Aug-05 14:00N 44°13' E 009°04'611.7
2017-Aug-05 13:31N 44°18' E 008°59'611.2
2017-Aug-05 13:00N 44°23' E 008°56'2 4.5
2017-Aug-05 12:31N 44°24' E 008°53'0 0.4
2017-Aug-05 12:00N 44°24' E 008°53'0 0.0
2017-Aug-05 11:27N 44°24' E 008°53'0 0.0
2017-Aug-05 11:00N 44°24' E 008°53'0 0.0
2017-Aug-05 10:27N 44°24' E 008°53'0 0.0
2017-Aug-05 09:57N 44°24' E 008°53'0 0.0
2017-Aug-05 09:30N 44°24' E 008°53'0 0.0
2017-Aug-05 09:00N 44°24' E 008°53'0 0.0
2017-Aug-05 08:30N 44°24' E 008°53'0 0.0
2017-Aug-05 07:57N 44°24' E 008°53'0 0.0
2017-Aug-05 07:27N 44°24' E 008°53'0 0.0
2017-Aug-05 07:00N 44°24' E 008°53'0 0.0
2017-Aug-05 06:30N 44°24' E 008°53'0 0.0
2017-Aug-05 06:00N 44°24' E 008°53'0 0.0
2017-Aug-05 05:30N 44°24' E 008°53'0 0.0
2017-Aug-05 05:00N 44°24' E 008°53'0 0.0
2017-Aug-05 04:30N 44°24' E 008°53'0 0.0
2017-Aug-05 04:00N 44°24' E 008°53'0 0.0
2017-Aug-05 03:30N 44°24' E 008°53'0 0.0
2017-Aug-05 03:00N 44°24' E 008°53'0 0.0
2017-Aug-05 02:30N 44°24' E 008°53'0 0.0
2017-Aug-05 02:00N 44°24' E 008°53'0 0.0
2017-Aug-05 01:30N 44°24' E 008°53'0 0.0
2017-Aug-05 01:00N 44°24' E 008°53'0 0.0
2017-Aug-05 00:30N 44°24' E 008°53'0 0.0
2017-Aug-05 00:00N 44°24' E 008°53'0 0.0
2017-Aug-04 23:30N 44°24' E 008°53'0 0.0
2017-Aug-04 23:00N 44°24' E 008°53'0 0.0
2017-Aug-04 22:30N 44°24' E 008°53'0 0.0
2017-Aug-04 22:00N 44°24' E 008°53'0 0.0
2017-Aug-04 21:30N 44°24' E 008°53'0 0.0
2017-Aug-04 20:54N 44°24' E 008°53'0 0.0
2017-Aug-04 20:27N 44°24' E 008°53'0 0.0
2017-Aug-04 20:00N 44°24' E 008°53'0 0.0
2017-Aug-04 19:27N 44°24' E 008°53'0 0.0
2017-Aug-04 19:00N 44°24' E 008°53'0 0.0
2017-Aug-04 18:30N 44°24' E 008°53'0 0.0
2017-Aug-04 17:57N 44°24' E 008°53'0 0.0
2017-Aug-04 17:27N 44°24' E 008°53'0 0.3
2017-Aug-04 17:00N 44°24' E 008°53'2 4.6
2017-Aug-04 16:30N 44°24' E 008°56'3 6.7
2017-Aug-04 16:00N 44°21' E 008°59'0 0.9
2017-Aug-04 15:30N 44°21' E 008°59'1 1.1
2017-Aug-04 15:00N 44°21' E 008°59'1 1.1
2017-Aug-04 14:00N 44°20' E 009°00'0 0.1
2017-Aug-04 13:30N 44°20' E 009°00'0 0.8
2017-Aug-04 13:00N 44°21' E 009°00'0 0.3
2017-Aug-04 12:30N 44°21' E 008°60'0 0.5
2017-Aug-04 12:00N 44°21' E 008°60'1 2.9
2017-Aug-04 11:30N 44°19' E 008°60'4 8.8
2017-Aug-04 11:00N 44°15' E 009°02'5 9.8
2017-Aug-04 10:30N 44°11' E 009°05'510.0
2017-Aug-04 10:00N 44°06' E 009°07'5 9.9
2017-Aug-04 09:30N 44°01' E 009°09'5 9.7
2017-Aug-04 09:00N 43°57' E 009°12'5 9.8
2017-Aug-04 08:30N 43°52' E 009°14'5 9.7
2017-Aug-04 08:00N 43°48' E 009°16'5 9.5
2017-Aug-04 07:30N 43°43' E 009°19'5 9.9
2017-Aug-04 06:57N 43°38' E 009°21'410.0
2017-Aug-04 06:30N 43°34' E 009°23'5 9.9
2017-Aug-04 06:00N 43°29' E 009°25'5 9.9
2017-Aug-04 05:30N 43°24' E 009°27'510.0
2017-Aug-04 05:00N 43°20' E 009°29'510.1
2017-Aug-04 04:30N 43°15' E 009°32'511.0
2017-Aug-04 04:00N 43°10' E 009°35'510.8
2017-Aug-04 03:30N 43°05' E 009°37'510.7
2017-Aug-04 03:00N 42°60' E 009°39'510.4
2017-Aug-04 02:30N 42°55' E 009°41'510.3
2017-Aug-04 02:00N 42°49' E 009°42'510.3
2017-Aug-04 01:30N 42°44' E 009°42'510.3
2017-Aug-04 01:00N 42°39' E 009°43'510.3
2017-Aug-04 00:30N 42°34' E 009°44'510.2
2017-Aug-04 00:00N 42°29' E 009°44'910.3
2017-Aug-03 23:06N 42°20' E 009°45'110.5
2017-Aug-03 23:00N 42°19' E 009°46'610.3
2017-Aug-03 22:26N 42°13' E 009°46'10711.3
2017-Aug-03 12:57N 40°26' E 009°60'612.3
2017-Aug-03 12:30N 40°21' E 009°59'9012.3
2017-Aug-03 05:11N 38°51' E 010°02'412.5
2017-Aug-03 04:52N 38°47' E 010°03'412.5
2017-Aug-03 04:30N 38°42' E 010°05'612.4
2017-Aug-03 04:00N 38°36' E 010°07'712.3
2017-Aug-03 03:26N 38°30' E 010°09'612.4
2017-Aug-03 02:57N 38°24' E 010°11'612.4
2017-Aug-03 02:30N 38°18' E 010°13'612.2
2017-Aug-03 01:59N 38°12' E 010°14'612.3
2017-Aug-03 01:29N 38°06' E 010°16'  
Track history (hours):
 
Tides and Currents Weather Stations Pressure Air Temp Water Temp Dewpoint Dewpoint Depression Visibility Wind Speed Wind Dir Waves Ship Positions

Zeran (malta)

Last reported at 2017-Aug-12 05:24 UTC. Time now 2017-Aug-20 00:35 UTC.
Position N 43°09' E 028°02'.

Length 148 m; beam 24 m.

Type: Cargo ship. MMSI: 249846000.

Date/timePositionNaut miles runAvg speedWind from/ knotsBaromVisibWave heightAir tempDewpointWater temp
2017-Aug-12 05:24N 43°09' E 028°02'0 1.1
2017-Aug-12 05:00N 43°09' E 028°02'1 1.8
2017-Aug-12 04:30N 43°09' E 028°02'3 5.3
2017-Aug-12 04:00N 43°06' E 028°01'3 5.9
2017-Aug-12 03:30N 43°03' E 028°00'9 5.7
2017-Aug-12 01:59N 42°55' E 027°60'3 5.6
2017-Aug-12 01:30N 42°52' E 027°59'3 5.6
2017-Aug-12 01:00N 42°49' E 027°59'3 5.1
2017-Aug-12 00:29N 42°47' E 027°59'4 7.6
2017-Aug-12 00:00N 42°43' E 027°59'5 9.9
2017-Aug-11 23:30N 42°38' E 027°60'510.1
2017-Aug-11 23:00N 42°34' E 028°03'510.3
2017-Aug-11 22:28N 42°29' E 028°07'510.5
2017-Aug-11 22:00N 42°25' E 028°12'510.7
2017-Aug-11 21:30N 42°21' E 028°16'611.4
2017-Aug-11 21:00N 42°16' E 028°21'611.6
2017-Aug-11 20:30N 42°12' E 028°25'611.6
2017-Aug-11 20:00N 42°07' E 028°30'611.3
2017-Aug-11 19:30N 42°02' E 028°34'611.1
2017-Aug-11 19:00N 41°57' E 028°37'511.0
2017-Aug-11 18:30N 41°53' E 028°42'510.8
2017-Aug-11 18:00N 41°49' E 028°46'510.7
2017-Aug-11 17:30N 41°44' E 028°50'510.7
2017-Aug-11 17:00N 41°40' E 028°55'510.6
2017-Aug-11 16:30N 41°36' E 028°59'510.6
2017-Aug-11 16:00N 41°32' E 029°03'510.7
2017-Aug-11 15:30N 41°27' E 029°07'510.9
2017-Aug-11 15:00N 41°23' E 029°11'1010.3
2017-Aug-11 14:00N 41°13' E 029°07'5 9.0
2017-Aug-11 13:28N 41°08' E 029°04'  
2017-Aug-08 16:37N 37°02' E 023°43'11310.7
2017-Aug-08 06:07N 36°33' E 021°27'112.8
2017-Aug-08 06:00N 36°33' E 021°26'612.7
2017-Aug-08 05:30N 36°35' E 021°18'4012.8
2017-Aug-08 02:24N 36°46' E 020°30'3312.7
2017-Aug-07 23:49N 36°56' E 019°51'412.8
2017-Aug-07 23:30N 36°57' E 019°46'912.7
2017-Aug-07 22:46N 36°60' E 019°35'312.7
2017-Aug-07 22:30N 37°01' E 019°31'612.9
2017-Aug-07 22:00N 37°02' E 019°23'713.0
2017-Aug-07 21:29N 37°04' E 019°15'613.0
2017-Aug-07 21:00N 37°06' E 019°08'612.7
2017-Aug-07 20:30N 37°07' E 018°60'612.8
2017-Aug-07 20:00N 37°08' E 018°52'612.8
2017-Aug-07 19:30N 37°10' E 018°44'1012.8
2017-Aug-07 18:42N 37°13' E 018°32'313.0
2017-Aug-07 18:29N 37°14' E 018°28'613.1
2017-Aug-07 18:00N 37°16' E 018°21'11612.8
2017-Aug-07 08:56N 37°48' E 016°00'912.0
2017-Aug-07 08:12N 37°50' E 015°49'211.4
2017-Aug-07 08:01N 37°50' E 015°47'611.1
2017-Aug-07 07:30N 37°53' E 015°40'611.6
2017-Aug-07 07:00N 37°57' E 015°35'611.9
2017-Aug-07 06:30N 38°03' E 015°34'612.2
2017-Aug-07 06:00N 38°09' E 015°35'611.3
2017-Aug-07 05:30N 38°14' E 015°37'5 9.2
2017-Aug-07 05:00N 38°18' E 015°40'611.9
2017-Aug-07 04:28N 38°23' E 015°34'612.2
2017-Aug-07 04:00N 38°27' E 015°29'612.2
2017-Aug-07 03:30N 38°32' E 015°24'612.2
2017-Aug-07 03:00N 38°36' E 015°18'612.1
2017-Aug-07 02:30N 38°40' E 015°13'611.9
2017-Aug-07 02:00N 38°45' E 015°08'611.8
2017-Aug-07 01:30N 38°49' E 015°03'611.8
2017-Aug-07 01:00N 38°53' E 014°57'611.6
2017-Aug-07 00:30N 38°57' E 014°52'3311.7
2017-Aug-06 21:40N 39°21' E 014°22'212.0
2017-Aug-06 21:30N 39°23' E 014°21'1012.1
2017-Aug-06 20:39N 39°30' E 014°11'212.1
2017-Aug-06 20:30N 39°31' E 014°09'5212.1
2017-Aug-06 16:11N 40°09' E 013°22'412.4
2017-Aug-06 15:49N 40°12' E 013°18'512.5
2017-Aug-06 15:27N 40°16' E 013°14'512.4
2017-Aug-06 15:00N 40°20' E 013°09'612.3
2017-Aug-06 14:30N 40°24' E 013°04'1412.3
2017-Aug-06 13:21N 40°34' E 012°51'412.2
2017-Aug-06 13:00N 40°37' E 012°47'612.1
2017-Aug-06 12:30N 40°41' E 012°41'612.1
2017-Aug-06 12:00N 40°46' E 012°35'612.2
2017-Aug-06 11:30N 40°50' E 012°30'6712.5
2017-Aug-06 06:08N 41°39' E 011°29'212.3
2017-Aug-06 05:58N 41°41' E 011°27'612.2
2017-Aug-06 05:30N 41°45' E 011°22'811.8
2017-Aug-06 04:51N 41°50' E 011°15'811.5
2017-Aug-06 04:12N 41°56' E 011°08'211.5
2017-Aug-06 04:00N 41°58' E 011°06'611.6
2017-Aug-06 03:30N 42°02' E 011°00'611.8
2017-Aug-06 03:00N 42°06' E 010°54'611.7
2017-Aug-06 02:30N 42°10' E 010°49'811.5
2017-Aug-06 01:48N 42°16' E 010°42'1111.6
2017-Aug-06 00:50N 42°24' E 010°31'511.8
2017-Aug-06 00:24N 42°27' E 010°26'511.7
2017-Aug-05 23:58N 42°31' E 010°21'1011.5
2017-Aug-05 23:04N 42°38' E 010°10'311.4
2017-Aug-05 22:47N 42°40' E 010°07'311.5
2017-Aug-05 22:30N 42°42' E 010°04'611.3
2017-Aug-05 22:00N 42°47' E 010°00'611.9
2017-Aug-05 21:30N 42°53' E 009°59'612.2
2017-Aug-05 21:01N 42°59' E 009°59'612.5
2017-Aug-05 20:30N 43°05' E 009°58'712.5
2017-Aug-05 19:58N 43°11' E 009°55'612.9
2017-Aug-05 19:30N 43°17' E 009°50'712.6
2017-Aug-05 18:58N 43°22' E 009°46'612.5
2017-Aug-05 18:30N 43°27' E 009°42'612.4
2017-Aug-05 18:00N 43°33' E 009°37'612.3
2017-Aug-05 17:31N 43°38' E 009°33'612.1
2017-Aug-05 17:00N 43°43' E 009°29'611.7
2017-Aug-05 16:30N 43°48' E 009°25'611.6
2017-Aug-05 16:01N 43°53' E 009°20'611.7
2017-Aug-05 15:30N 43°58' E 009°16'611.6
2017-Aug-05 15:00N 44°03' E 009°12'611.9
2017-Aug-05 14:30N 44°08' E 009°08'612.0
2017-Aug-05 14:00N 44°13' E 009°04'611.7
2017-Aug-05 13:31N 44°18' E 008°59'611.2
2017-Aug-05 13:00N 44°23' E 008°56'2 4.5
2017-Aug-05 12:31N 44°24' E 008°53'0 0.4
2017-Aug-05 12:00N 44°24' E 008°53'0 0.0
2017-Aug-05 11:27N 44°24' E 008°53'0 0.0
2017-Aug-05 11:00N 44°24' E 008°53'0 0.0
2017-Aug-05 10:27N 44°24' E 008°53'0 0.0
2017-Aug-05 09:57N 44°24' E 008°53'0 0.0
2017-Aug-05 09:30N 44°24' E 008°53'0 0.0
2017-Aug-05 09:00N 44°24' E 008°53'0 0.0
2017-Aug-05 08:30N 44°24' E 008°53'0 0.0
2017-Aug-05 07:57N 44°24' E 008°53'0 0.0
2017-Aug-05 07:27N 44°24' E 008°53'0 0.0
2017-Aug-05 07:00N 44°24' E 008°53'0 0.0
2017-Aug-05 06:30N 44°24' E 008°53'0 0.0
2017-Aug-05 06:00N 44°24' E 008°53'0 0.0
2017-Aug-05 05:30N 44°24' E 008°53'0 0.0
2017-Aug-05 05:00N 44°24' E 008°53'0 0.0
2017-Aug-05 04:30N 44°24' E 008°53'0 0.0
2017-Aug-05 04:00N 44°24' E 008°53'0 0.0
2017-Aug-05 03:30N 44°24' E 008°53'0 0.0
2017-Aug-05 03:00N 44°24' E 008°53'0 0.0
2017-Aug-05 02:30N 44°24' E 008°53'0 0.0
2017-Aug-05 02:00N 44°24' E 008°53'0 0.0
2017-Aug-05 01:30N 44°24' E 008°53'0 0.0
2017-Aug-05 01:00N 44°24' E 008°53'0 0.0
2017-Aug-05 00:30N 44°24' E 008°53'0 0.0
2017-Aug-05 00:00N 44°24' E 008°53'0 0.0
2017-Aug-04 23:30N 44°24' E 008°53'0 0.0
2017-Aug-04 23:00N 44°24' E 008°53'0 0.0
2017-Aug-04 22:30N 44°24' E 008°53'0 0.0
2017-Aug-04 22:00N 44°24' E 008°53'0 0.0
2017-Aug-04 21:30N 44°24' E 008°53'0 0.0
2017-Aug-04 20:54N 44°24' E 008°53'0 0.0
2017-Aug-04 20:27N 44°24' E 008°53'0 0.0
2017-Aug-04 20:00N 44°24' E 008°53'0 0.0
2017-Aug-04 19:27N 44°24' E 008°53'0 0.0
2017-Aug-04 19:00N 44°24' E 008°53'0 0.0
2017-Aug-04 18:30N 44°24' E 008°53'0 0.0
2017-Aug-04 17:57N 44°24' E 008°53'0 0.0
2017-Aug-04 17:27N 44°24' E 008°53'0 0.3
2017-Aug-04 17:00N 44°24' E 008°53'2 4.6
2017-Aug-04 16:30N 44°24' E 008°56'3 6.7
2017-Aug-04 16:00N 44°21' E 008°59'0 0.9
2017-Aug-04 15:30N 44°21' E 008°59'1 1.1
2017-Aug-04 15:00N 44°21' E 008°59'1 1.1
2017-Aug-04 14:00N 44°20' E 009°00'0 0.1
2017-Aug-04 13:30N 44°20' E 009°00'0 0.8
2017-Aug-04 13:00N 44°21' E 009°00'0 0.3
2017-Aug-04 12:30N 44°21' E 008°60'0 0.5
2017-Aug-04 12:00N 44°21' E 008°60'1 2.9
2017-Aug-04 11:30N 44°19' E 008°60'4 8.8
2017-Aug-04 11:00N 44°15' E 009°02'5 9.8
2017-Aug-04 10:30N 44°11' E 009°05'510.0
2017-Aug-04 10:00N 44°06' E 009°07'5 9.9
2017-Aug-04 09:30N 44°01' E 009°09'5 9.7
2017-Aug-04 09:00N 43°57' E 009°12'5 9.8
2017-Aug-04 08:30N 43°52' E 009°14'5 9.7
2017-Aug-04 08:00N 43°48' E 009°16'5 9.5
2017-Aug-04 07:30N 43°43' E 009°19'5 9.9
2017-Aug-04 06:57N 43°38' E 009°21'410.0
2017-Aug-04 06:30N 43°34' E 009°23'5 9.9
2017-Aug-04 06:00N 43°29' E 009°25'5 9.9
2017-Aug-04 05:30N 43°24' E 009°27'510.0
2017-Aug-04 05:00N 43°20' E 009°29'510.1
2017-Aug-04 04:30N 43°15' E 009°32'511.0
2017-Aug-04 04:00N 43°10' E 009°35'510.8
2017-Aug-04 03:30N 43°05' E 009°37'510.7
2017-Aug-04 03:00N 42°60' E 009°39'510.4
2017-Aug-04 02:30N 42°55' E 009°41'510.3
2017-Aug-04 02:00N 42°49' E 009°42'510.3
2017-Aug-04 01:30N 42°44' E 009°42'510.3
2017-Aug-04 01:00N 42°39' E 009°43'510.3
2017-Aug-04 00:30N 42°34' E 009°44'510.2
2017-Aug-04 00:00N 42°29' E 009°44'910.3
2017-Aug-03 23:06N 42°20' E 009°45'110.5
2017-Aug-03 23:00N 42°19' E 009°46'610.3
2017-Aug-03 22:26N 42°13' E 009°46'10711.3
2017-Aug-03 12:57N 40°26' E 009°60'612.3
2017-Aug-03 12:30N 40°21' E 009°59'9012.3
2017-Aug-03 05:11N 38°51' E 010°02'412.5
2017-Aug-03 04:52N 38°47' E 010°03'412.5
2017-Aug-03 04:30N 38°42' E 010°05'612.4
2017-Aug-03 04:00N 38°36' E 010°07'712.3
2017-Aug-03 03:26N 38°30' E 010°09'612.4
2017-Aug-03 02:57N 38°24' E 010°11'612.4
2017-Aug-03 02:30N 38°18' E 010°13'612.2
2017-Aug-03 01:59N 38°12' E 010°14'612.3
2017-Aug-03 01:29N 38°06' E 010°16'  

Dump ship's entire track history